sensor_id;sensor_type;location;lat;lon;timestamp;pressure;altitude;pressure_sealevel;temperature;humidity
78800;BME280;68148;55.328;86.106;2023-03-01T00:01:41;99680.81;;;-1.83;79.19
78800;BME280;68148;55.328;86.106;2023-03-01T00:04:18;99675.97;;;-1.88;79.69
78800;BME280;68148;55.328;86.106;2023-03-01T00:07:00;99682.19;;;-1.90;78.81
78800;BME280;68148;55.328;86.106;2023-03-01T00:09:40;99682.41;;;-1.93;79.73
78800;BME280;68148;55.328;86.106;2023-03-01T00:12:08;99683.00;;;-1.90;79.11
78800;BME280;68148;55.328;86.106;2023-03-01T00:14:35;99693.25;;;-1.88;79.45
78800;BME280;68148;55.328;86.106;2023-03-01T00:17:01;99691.91;;;-1.94;79.77
78800;BME280;68148;55.328;86.106;2023-03-01T00:19:31;99694.50;;;-1.94;79.64
78800;BME280;68148;55.328;86.106;2023-03-01T00:21:56;99692.53;;;-1.90;79.86
78800;BME280;68148;55.328;86.106;2023-03-01T00:24:23;99703.69;;;-1.90;79.49
78800;BME280;68148;55.328;86.106;2023-03-01T00:26:53;99697.50;;;-1.87;79.28
78800;BME280;68148;55.328;86.106;2023-03-01T00:29:22;99692.97;;;-1.96;79.92
78800;BME280;68148;55.328;86.106;2023-03-01T00:31:50;99698.16;;;-1.96;80.49
78800;BME280;68148;55.328;86.106;2023-03-01T00:34:16;99691.22;;;-1.96;80.01
78800;BME280;68148;55.328;86.106;2023-03-01T00:36:42;99700.13;;;-2.00;80.42
78800;BME280;68148;55.328;86.106;2023-03-01T00:39:12;99690.91;;;-2.04;80.50
78800;BME280;68148;55.328;86.106;2023-03-01T00:41:41;99694.00;;;-1.99;79.88
78800;BME280;68148;55.328;86.106;2023-03-01T00:44:08;99693.19;;;-1.99;79.74
78800;BME280;68148;55.328;86.106;2023-03-01T00:46:35;99688.41;;;-2.06;79.43
78800;BME280;68148;55.328;86.106;2023-03-01T00:49:01;99694.00;;;-1.99;79.34
78800;BME280;68148;55.328;86.106;2023-03-01T00:51:28;99692.69;;;-2.05;79.45
78800;BME280;68148;55.328;86.106;2023-03-01T00:53:58;99698.88;;;-2.07;79.50
78800;BME280;68148;55.328;86.106;2023-03-01T00:56:25;99693.28;;;-2.01;79.10
78800;BME280;68148;55.328;86.106;2023-03-01T00:58:52;99706.31;;;-2.03;79.25
78800;BME280;68148;55.328;86.106;2023-03-01T01:01:21;99701.75;;;-1.99;79.13
78800;BME280;68148;55.328;86.106;2023-03-01T01:03:54;99696.59;;;-1.99;79.00
78800;BME280;68148;55.328;86.106;2023-03-01T01:06:24;99708.56;;;-1.98;78.93
78800;BME280;68148;55.328;86.106;2023-03-01T01:08:52;99707.94;;;-1.89;80.31
78800;BME280;68148;55.328;86.106;2023-03-01T01:11:20;99698.50;;;-1.77;81.91
78800;BME280;68148;55.328;86.106;2023-03-01T01:13:47;99710.38;;;-1.51;81.35
78800;BME280;68148;55.328;86.106;2023-03-01T01:16:15;99703.22;;;-1.47;79.71
78800;BME280;68148;55.328;86.106;2023-03-01T01:18:41;99705.56;;;-1.31;79.85
78800;BME280;68148;55.328;86.106;2023-03-01T01:21:10;99710.66;;;-1.18;80.12
78800;BME280;68148;55.328;86.106;2023-03-01T01:23:37;99717.56;;;-0.95;78.51
78800;BME280;68148;55.328;86.106;2023-03-01T01:26:06;99712.53;;;-1.20;76.87
78800;BME280;68148;55.328;86.106;2023-03-01T01:28:32;99720.34;;;-1.33;77.81
78800;BME280;68148;55.328;86.106;2023-03-01T01:30:59;99720.47;;;-0.99;77.73
78800;BME280;68148;55.328;86.106;2023-03-01T01:33:25;99721.13;;;-1.20;77.01
78800;BME280;68148;55.328;86.106;2023-03-01T01:35:51;99722.59;;;-1.29;76.93
78800;BME280;68148;55.328;86.106;2023-03-01T01:38:17;99724.22;;;-1.39;76.59
78800;BME280;68148;55.328;86.106;2023-03-01T01:40:48;99728.69;;;-1.41;76.77
78800;BME280;68148;55.328;86.106;2023-03-01T01:46:04;99729.19;;;-1.36;76.25
78800;BME280;68148;55.328;86.106;2023-03-01T01:48:45;99733.41;;;-1.35;78.11
78800;BME280;68148;55.328;86.106;2023-03-01T01:51:18;99735.00;;;-1.21;80.39
78800;BME280;68148;55.328;86.106;2023-03-01T01:53:47;99737.44;;;-0.95;78.59
78800;BME280;68148;55.328;86.106;2023-03-01T01:56:15;99739.69;;;-1.02;76.62
78800;BME280;68148;55.328;86.106;2023-03-01T01:58:43;99728.09;;;-1.09;76.54
78800;BME280;68148;55.328;86.106;2023-03-01T02:01:13;99735.88;;;-1.33;77.69
78800;BME280;68148;55.328;86.106;2023-03-01T02:03:41;99733.09;;;-1.30;79.43
78800;BME280;68148;55.328;86.106;2023-03-01T02:06:33;99735.34;;;-1.26;78.10
78800;BME280;68148;55.328;86.106;2023-03-01T02:09:07;99730.38;;;-1.29;78.37
78800;BME280;68148;55.328;86.106;2023-03-01T02:11:33;99730.69;;;-1.09;77.45
78800;BME280;68148;55.328;86.106;2023-03-01T02:14:03;99727.03;;;-1.18;77.69
78800;BME280;68148;55.328;86.106;2023-03-01T02:16:30;99731.38;;;-1.18;76.82
78800;BME280;68148;55.328;86.106;2023-03-01T02:18:57;99727.41;;;-1.11;78.19
78800;BME280;68148;55.328;86.106;2023-03-01T02:24:40;99727.13;;;-1.19;76.93
78800;BME280;68148;55.328;86.106;2023-03-01T02:27:11;99724.03;;;-1.24;77.20
78800;BME280;68148;55.328;86.106;2023-03-01T02:29:38;99731.50;;;-1.20;77.47
78800;BME280;68148;55.328;86.106;2023-03-01T02:32:04;99729.72;;;-1.19;77.47
78800;BME280;68148;55.328;86.106;2023-03-01T02:34:32;99733.22;;;-1.20;77.72
78800;BME280;68148;55.328;86.106;2023-03-01T02:37:05;99719.41;;;-1.08;77.48
78800;BME280;68148;55.328;86.106;2023-03-01T02:39:39;99726.63;;;-1.01;79.35
78800;BME280;68148;55.328;86.106;2023-03-01T02:42:10;99726.81;;;-1.15;76.42
78800;BME280;68148;55.328;86.106;2023-03-01T02:44:38;99729.47;;;-1.16;76.62
78800;BME280;68148;55.328;86.106;2023-03-01T02:47:04;99734.22;;;-1.10;78.65
78800;BME280;68148;55.328;86.106;2023-03-01T02:49:34;99736.22;;;-1.14;77.49
78800;BME280;68148;55.328;86.106;2023-03-01T02:52:31;99739.91;;;-1.05;76.47
78800;BME280;68148;55.328;86.106;2023-03-01T02:55:14;99742.16;;;-1.01;77.27
78800;BME280;68148;55.328;86.106;2023-03-01T02:57:44;99739.16;;;-1.07;76.20
78800;BME280;68148;55.328;86.106;2023-03-01T03:00:13;99735.88;;;-1.09;76.41
78800;BME280;68148;55.328;86.106;2023-03-01T03:02:40;99730.25;;;-1.03;77.35
78800;BME280;68148;55.328;86.106;2023-03-01T03:07:49;99740.13;;;-1.08;76.04
78800;BME280;68148;55.328;86.106;2023-03-01T03:10:18;99745.47;;;-0.98;77.61
78800;BME280;68148;55.328;86.106;2023-03-01T03:12:51;99741.84;;;-0.85;75.62
78800;BME280;68148;55.328;86.106;2023-03-01T03:15:21;99734.91;;;-0.73;75.62
78800;BME280;68148;55.328;86.106;2023-03-01T03:17:48;99731.91;;;-0.56;75.61
78800;BME280;68148;55.328;86.106;2023-03-01T03:20:16;99718.66;;;-0.75;73.68
78800;BME280;68148;55.328;86.106;2023-03-01T03:22:42;99730.94;;;-0.77;74.64
78800;BME280;68148;55.328;86.106;2023-03-01T03:25:09;99732.66;;;-0.89;73.80
78800;BME280;68148;55.328;86.106;2023-03-01T03:27:35;99734.88;;;-0.95;73.93
78800;BME280;68148;55.328;86.106;2023-03-01T03:30:01;99740.69;;;-0.81;73.63
78800;BME280;68148;55.328;86.106;2023-03-01T03:32:27;99737.59;;;-0.86;73.55
78800;BME280;68148;55.328;86.106;2023-03-01T03:34:53;99719.09;;;-0.92;73.00
78800;BME280;68148;55.328;86.106;2023-03-01T03:37:19;99719.19;;;-1.05;73.55
78800;BME280;68148;55.328;86.106;2023-03-01T03:39:45;99736.44;;;-1.17;74.04
78800;BME280;68148;55.328;86.106;2023-03-01T03:42:11;99737.09;;;-1.02;74.10
78800;BME280;68148;55.328;86.106;2023-03-01T03:44:37;99734.88;;;-0.95;74.74
78800;BME280;68148;55.328;86.106;2023-03-01T03:47:03;99733.84;;;-0.82;73.60
78800;BME280;68148;55.328;86.106;2023-03-01T03:49:30;99728.22;;;-0.76;73.02
78800;BME280;68148;55.328;86.106;2023-03-01T03:51:57;99727.56;;;-0.55;72.24
78800;BME280;68148;55.328;86.106;2023-03-01T03:54:23;99730.97;;;-0.55;71.71
78800;BME280;68148;55.328;86.106;2023-03-01T03:56:49;99741.53;;;-0.69;71.69
78800;BME280;68148;55.328;86.106;2023-03-01T03:59:15;99740.06;;;-0.38;73.25
78800;BME280;68148;55.328;86.106;2023-03-01T04:01:41;99713.63;;;-0.43;71.72
78800;BME280;68148;55.328;86.106;2023-03-01T04:04:07;99722.13;;;-0.52;71.68
78800;BME280;68148;55.328;86.106;2023-03-01T04:06:34;99727.34;;;-0.30;72.71
78800;BME280;68148;55.328;86.106;2023-03-01T04:08:59;99725.56;;;-0.29;71.10
78800;BME280;68148;55.328;86.106;2023-03-01T04:11:25;99714.13;;;-0.27;70.66
78800;BME280;68148;55.328;86.106;2023-03-01T04:13:54;99718.84;;;-0.32;70.63
78800;BME280;68148;55.328;86.106;2023-03-01T04:16:21;99710.63;;;-0.26;70.88
78800;BME280;68148;55.328;86.106;2023-03-01T04:18:47;99702.00;;;-0.37;71.04
78800;BME280;68148;55.328;86.106;2023-03-01T04:21:14;99705.06;;;-0.21;70.43
78800;BME280;68148;55.328;86.106;2023-03-01T04:23:40;99699.16;;;-0.12;70.02
78800;BME280;68148;55.328;86.106;2023-03-01T04:26:06;99691.91;;;0.25;69.12
78800;BME280;68148;55.328;86.106;2023-03-01T04:28:36;99687.81;;;0.55;68.42
78800;BME280;68148;55.328;86.106;2023-03-01T04:31:05;99682.66;;;0.44;67.61
78800;BME280;68148;55.328;86.106;2023-03-01T04:33:31;99676.22;;;0.59;66.99
78800;BME280;68148;55.328;86.106;2023-03-01T04:35:57;99678.59;;;0.62;67.30
78800;BME280;68148;55.328;86.106;2023-03-01T04:38:23;99674.13;;;0.53;67.74
78800;BME280;68148;55.328;86.106;2023-03-01T04:40:49;99677.63;;;0.63;68.08
78800;BME280;68148;55.328;86.106;2023-03-01T04:43:15;99678.88;;;0.48;67.46
78800;BME280;68148;55.328;86.106;2023-03-01T04:45:41;99680.59;;;0.59;67.48
78800;BME280;68148;55.328;86.106;2023-03-01T04:48:08;99676.88;;;0.52;67.12
78800;BME280;68148;55.328;86.106;2023-03-01T04:50:34;99678.31;;;0.44;67.56
78800;BME280;68148;55.328;86.106;2023-03-01T04:53:00;99680.53;;;0.49;67.71
78800;BME280;68148;55.328;86.106;2023-03-01T04:55:28;99685.06;;;0.24;68.91
78800;BME280;68148;55.328;86.106;2023-03-01T04:57:55;99693.13;;;0.10;68.99
78800;BME280;68148;55.328;86.106;2023-03-01T05:00:22;99689.66;;;0.21;69.32
78800;BME280;68148;55.328;86.106;2023-03-01T05:02:59;99693.44;;;0.28;69.41
78800;BME280;68148;55.328;86.106;2023-03-01T05:05:29;99688.00;;;0.31;69.72
78800;BME280;68148;55.328;86.106;2023-03-01T05:07:58;99686.72;;;0.25;68.99
78800;BME280;68148;55.328;86.106;2023-03-01T05:10:26;99685.56;;;0.07;70.00
78800;BME280;68148;55.328;86.106;2023-03-01T05:12:53;99683.72;;;-0.24;70.56
78800;BME280;68148;55.328;86.106;2023-03-01T05:15:20;99691.63;;;-0.15;74.17
78800;BME280;68148;55.328;86.106;2023-03-01T05:17:46;99685.50;;;-0.25;70.92
78800;BME280;68148;55.328;86.106;2023-03-01T05:20:13;99693.50;;;-0.28;71.30
78800;BME280;68148;55.328;86.106;2023-03-01T05:22:39;99691.03;;;-0.18;72.08
78800;BME280;68148;55.328;86.106;2023-03-01T05:25:06;99693.16;;;-0.12;71.33
78800;BME280;68148;55.328;86.106;2023-03-01T05:27:32;99685.34;;;-0.01;70.56
78800;BME280;68148;55.328;86.106;2023-03-01T05:30:01;99684.41;;;0.11;69.72
78800;BME280;68148;55.328;86.106;2023-03-01T05:32:27;99688.41;;;0.15;70.10
78800;BME280;68148;55.328;86.106;2023-03-01T05:34:53;99683.78;;;0.30;69.99
78800;BME280;68148;55.328;86.106;2023-03-01T05:37:19;99680.22;;;0.31;69.36
78800;BME280;68148;55.328;86.106;2023-03-01T05:39:45;99673.50;;;0.29;68.14
78800;BME280;68148;55.328;86.106;2023-03-01T05:42:11;99673.53;;;0.17;69.00
78800;BME280;68148;55.328;86.106;2023-03-01T05:44:38;99684.28;;;0.02;69.47
78800;BME280;68148;55.328;86.106;2023-03-01T05:47:05;99684.28;;;0.02;69.91
78800;BME280;68148;55.328;86.106;2023-03-01T05:49:31;99680.84;;;0.23;69.73
78800;BME280;68148;55.328;86.106;2023-03-01T05:51:59;99679.50;;;0.40;68.41
78800;BME280;68148;55.328;86.106;2023-03-01T05:54:25;99676.97;;;0.50;68.37
78800;BME280;68148;55.328;86.106;2023-03-01T05:56:51;99681.50;;;0.37;67.99
78800;BME280;68148;55.328;86.106;2023-03-01T05:59:20;99686.75;;;0.58;67.39
78800;BME280;68148;55.328;86.106;2023-03-01T06:01:46;99688.28;;;0.60;67.48
78800;BME280;68148;55.328;86.106;2023-03-01T06:04:19;99682.72;;;0.65;66.38
78800;BME280;68148;55.328;86.106;2023-03-01T06:06:45;99681.78;;;0.87;66.94
78800;BME280;68148;55.328;86.106;2023-03-01T06:09:12;99671.47;;;1.17;66.34
78800;BME280;68148;55.328;86.106;2023-03-01T06:11:38;99678.25;;;1.30;64.70
78800;BME280;68148;55.328;86.106;2023-03-01T06:14:06;99677.22;;;1.42;64.67
78800;BME280;68148;55.328;86.106;2023-03-01T06:16:34;99670.56;;;1.89;64.46
78800;BME280;68148;55.328;86.106;2023-03-01T06:19:01;99673.19;;;1.99;63.19
78800;BME280;68148;55.328;86.106;2023-03-01T06:21:27;99674.22;;;2.37;62.55
78800;BME280;68148;55.328;86.106;2023-03-01T06:23:54;99673.00;;;2.41;62.84
78800;BME280;68148;55.328;86.106;2023-03-01T06:26:20;99668.41;;;2.04;61.97
78800;BME280;68148;55.328;86.106;2023-03-01T06:28:46;99658.19;;;2.51;63.94
78800;BME280;68148;55.328;86.106;2023-03-01T06:31:12;99667.53;;;2.63;62.32
78800;BME280;68148;55.328;86.106;2023-03-01T06:33:38;99654.63;;;2.52;62.15
78800;BME280;68148;55.328;86.106;2023-03-01T06:36:04;99655.41;;;2.14;63.22
78800;BME280;68148;55.328;86.106;2023-03-01T06:38:30;99660.50;;;2.15;62.94
78800;BME280;68148;55.328;86.106;2023-03-01T06:40:56;99660.19;;;2.09;62.95
78800;BME280;68148;55.328;86.106;2023-03-01T06:43:23;99657.41;;;1.91;64.15
78800;BME280;68148;55.328;86.106;2023-03-01T06:45:49;99660.38;;;1.77;65.71
78800;BME280;68148;55.328;86.106;2023-03-01T06:48:17;99663.78;;;1.67;65.16
78800;BME280;68148;55.328;86.106;2023-03-01T06:50:44;99663.69;;;1.48;65.97
78800;BME280;68148;55.328;86.106;2023-03-01T06:53:10;99664.69;;;1.57;65.67
78800;BME280;68148;55.328;86.106;2023-03-01T06:55:36;99656.19;;;1.55;65.89
78800;BME280;68148;55.328;86.106;2023-03-01T06:58:03;99664.69;;;1.05;67.74
78800;BME280;68148;55.328;86.106;2023-03-01T07:00:29;99662.28;;;1.13;68.28
78800;BME280;68148;55.328;86.106;2023-03-01T07:02:59;99658.13;;;0.90;69.68
78800;BME280;68148;55.328;86.106;2023-03-01T07:05:25;99659.44;;;0.95;70.08
78800;BME280;68148;55.328;86.106;2023-03-01T07:07:51;99657.31;;;0.68;69.85
78800;BME280;68148;55.328;86.106;2023-03-01T07:10:18;99652.56;;;0.73;70.61
78800;BME280;68148;55.328;86.106;2023-03-01T07:12:44;99657.13;;;0.60;71.43
78800;BME280;68148;55.328;86.106;2023-03-01T07:15:10;99651.75;;;0.94;70.44
78800;BME280;68148;55.328;86.106;2023-03-01T07:17:36;99638.00;;;0.82;69.66
78800;BME280;68148;55.328;86.106;2023-03-01T07:20:03;99652.41;;;1.07;69.90
78800;BME280;68148;55.328;86.106;2023-03-01T07:22:29;99648.41;;;0.82;69.91
78800;BME280;68148;55.328;86.106;2023-03-01T07:24:55;99651.09;;;0.81;70.74
78800;BME280;68148;55.328;86.106;2023-03-01T07:27:21;99644.91;;;0.93;70.07
78800;BME280;68148;55.328;86.106;2023-03-01T07:29:47;99645.16;;;0.69;70.21
78800;BME280;68148;55.328;86.106;2023-03-01T07:32:16;99649.16;;;0.73;71.38
78800;BME280;68148;55.328;86.106;2023-03-01T07:34:42;99643.88;;;0.84;71.13
78800;BME280;68148;55.328;86.106;2023-03-01T07:37:08;99644.59;;;1.07;70.63
78800;BME280;68148;55.328;86.106;2023-03-01T07:39:34;99647.50;;;0.93;71.06
78800;BME280;68148;55.328;86.106;2023-03-01T07:42:00;99645.97;;;0.69;72.54
78800;BME280;68148;55.328;86.106;2023-03-01T07:44:26;99648.59;;;0.69;71.64
78800;BME280;68148;55.328;86.106;2023-03-01T07:46:52;99638.44;;;0.87;70.39
78800;BME280;68148;55.328;86.106;2023-03-01T07:49:18;99636.22;;;0.62;72.48
78800;BME280;68148;55.328;86.106;2023-03-01T07:51:44;99643.56;;;0.57;73.90
78800;BME280;68148;55.328;86.106;2023-03-01T07:54:10;99640.59;;;0.61;73.08
78800;BME280;68148;55.328;86.106;2023-03-01T07:56:36;99638.59;;;0.54;72.62
78800;BME280;68148;55.328;86.106;2023-03-01T07:59:05;99647.72;;;0.48;72.04
78800;BME280;68148;55.328;86.106;2023-03-01T08:01:31;99636.16;;;0.52;71.99
78800;BME280;68148;55.328;86.106;2023-03-01T08:03:57;99647.72;;;0.48;72.21
78800;BME280;68148;55.328;86.106;2023-03-01T08:06:23;99639.94;;;0.48;72.37
78800;BME280;68148;55.328;86.106;2023-03-01T08:08:49;99641.13;;;0.44;73.49
78800;BME280;68148;55.328;86.106;2023-03-01T08:11:16;99641.06;;;0.55;72.76
78800;BME280;68148;55.328;86.106;2023-03-01T08:13:46;99641.81;;;0.46;73.39
78800;BME280;68148;55.328;86.106;2023-03-01T08:16:14;99638.75;;;0.52;73.93
78800;BME280;68148;55.328;86.106;2023-03-01T08:18:41;99635.47;;;0.71;73.04
78800;BME280;68148;55.328;86.106;2023-03-01T08:21:12;99632.00;;;0.82;73.80
78800;BME280;68148;55.328;86.106;2023-03-01T08:23:40;99630.78;;;0.65;72.87
78800;BME280;68148;55.328;86.106;2023-03-01T08:26:14;99631.19;;;0.49;73.05
78800;BME280;68148;55.328;86.106;2023-03-01T08:28:41;99629.88;;;0.22;75.28
78800;BME280;68148;55.328;86.106;2023-03-01T08:33:45;99627.38;;;0.21;75.12
78800;BME280;68148;55.328;86.106;2023-03-01T08:36:12;99623.75;;;0.12;75.22
78800;BME280;68148;55.328;86.106;2023-03-01T08:38:38;99629.09;;;-0.01;75.41
78800;BME280;68148;55.328;86.106;2023-03-01T08:41:05;99634.06;;;-0.09;76.62
78800;BME280;68148;55.328;86.106;2023-03-01T08:43:31;99631.25;;;-0.06;76.27
78800;BME280;68148;55.328;86.106;2023-03-01T08:45:58;99622.50;;;-0.05;76.94
78800;BME280;68148;55.328;86.106;2023-03-01T08:48:27;99628.28;;;-0.01;77.54
78800;BME280;68148;55.328;86.106;2023-03-01T08:50:53;99624.78;;;-0.11;77.11
78800;BME280;68148;55.328;86.106;2023-03-01T08:53:20;99612.84;;;-0.03;77.20
78800;BME280;68148;55.328;86.106;2023-03-01T08:55:48;99614.84;;;0.05;76.95
78800;BME280;68148;55.328;86.106;2023-03-01T08:58:14;99619.91;;;-0.05;77.68
78800;BME280;68148;55.328;86.106;2023-03-01T09:00:40;99620.88;;;-0.06;77.80
78800;BME280;68148;55.328;86.106;2023-03-01T09:03:06;99607.63;;;0.09;77.55
78800;BME280;68148;55.328;86.106;2023-03-01T09:05:34;99610.13;;;-0.01;77.75
78800;BME280;68148;55.328;86.106;2023-03-01T09:08:00;99616.94;;;0.11;79.04
78800;BME280;68148;55.328;86.106;2023-03-01T09:10:26;99611.72;;;0.22;77.61
78800;BME280;68148;55.328;86.106;2023-03-01T09:12:52;99612.66;;;0.21;77.00
78800;BME280;68148;55.328;86.106;2023-03-01T09:15:18;99610.56;;;0.15;77.22
78800;BME280;68148;55.328;86.106;2023-03-01T09:17:45;99609.88;;;0.13;77.51
78800;BME280;68148;55.328;86.106;2023-03-01T09:20:11;99603.06;;;-0.10;78.88
78800;BME280;68148;55.328;86.106;2023-03-01T09:22:37;99600.09;;;-0.06;78.90
78800;BME280;68148;55.328;86.106;2023-03-01T09:25:03;99608.38;;;-0.12;78.73
78800;BME280;68148;55.328;86.106;2023-03-01T09:27:30;99599.78;;;-0.12;78.82
78800;BME280;68148;55.328;86.106;2023-03-01T09:29:56;99599.78;;;-0.12;79.03
78800;BME280;68148;55.328;86.106;2023-03-01T09:32:22;99595.75;;;-0.05;79.14
78800;BME280;68148;55.328;86.106;2023-03-01T09:34:48;99588.69;;;-0.03;79.19
78800;BME280;68148;55.328;86.106;2023-03-01T09:37:14;99589.63;;;-0.04;79.24
78800;BME280;68148;55.328;86.106;2023-03-01T09:39:40;99593.16;;;-0.05;79.13
78800;BME280;68148;55.328;86.106;2023-03-01T09:42:10;99585.72;;;0.02;78.93
78800;BME280;68148;55.328;86.106;2023-03-01T09:44:49;99582.16;;;0.03;78.75
78800;BME280;68148;55.328;86.106;2023-03-01T09:49:45;99572.03;;;-0.01;79.19
78800;BME280;68148;55.328;86.106;2023-03-01T09:52:26;99577.97;;;-0.10;79.29
78800;BME280;68148;55.328;86.106;2023-03-01T09:54:56;99576.53;;;-0.14;80.12
78800;BME280;68148;55.328;86.106;2023-03-01T09:57:26;99571.25;;;-0.12;80.45
78800;BME280;68148;55.328;86.106;2023-03-01T10:00:02;99573.50;;;-0.19;80.69
78800;BME280;68148;55.328;86.106;2023-03-01T10:02:47;99568.09;;;-0.16;80.20
78800;BME280;68148;55.328;86.106;2023-03-01T10:05:36;99564.91;;;-0.19;80.38
78800;BME280;68148;55.328;86.106;2023-03-01T10:10:44;99555.47;;;-0.20;80.96
78800;BME280;68148;55.328;86.106;2023-03-01T10:16:12;99549.94;;;-0.27;81.46
78800;BME280;68148;55.328;86.106;2023-03-01T10:18:39;99547.69;;;-0.20;81.61
78800;BME280;68148;55.328;86.106;2023-03-01T10:21:18;99545.47;;;-0.25;81.68
78800;BME280;68148;55.328;86.106;2023-03-01T10:23:46;99537.44;;;-0.22;81.63
78800;BME280;68148;55.328;86.106;2023-03-01T10:31:27;99534.59;;;-0.19;82.13
78800;BME280;68148;55.328;86.106;2023-03-01T10:33:58;99534.47;;;-0.17;82.19
78800;BME280;68148;55.328;86.106;2023-03-01T10:36:24;99542.34;;;-0.08;81.91
78800;BME280;68148;55.328;86.106;2023-03-01T10:38:53;99533.41;;;-0.15;82.24
78800;BME280;68148;55.328;86.106;2023-03-01T10:41:20;99529.13;;;-0.05;81.89
78800;BME280;68148;55.328;86.106;2023-03-01T10:43:50;99528.19;;;-0.04;82.01
78800;BME280;68148;55.328;86.106;2023-03-01T10:51:42;99508.09;;;0.10;81.87
78800;BME280;68148;55.328;86.106;2023-03-01T10:54:38;99513.38;;;0.08;81.72
78800;BME280;68148;55.328;86.106;2023-03-01T10:57:05;99498.78;;;0.07;81.66
78800;BME280;68148;55.328;86.106;2023-03-01T10:59:34;99512.19;;;0.12;81.54
78800;BME280;68148;55.328;86.106;2023-03-01T11:02:16;99498.16;;;0.15;81.18
78800;BME280;68148;55.328;86.106;2023-03-01T11:05:22;99499.78;;;0.16;80.87
78800;BME280;68148;55.328;86.106;2023-03-01T11:07:56;99495.19;;;0.19;80.21
78800;BME280;68148;55.328;86.106;2023-03-01T11:10:26;99496.81;;;0.20;80.14
78800;BME280;68148;55.328;86.106;2023-03-01T11:13:17;99503.53;;;0.23;79.63
78800;BME280;68148;55.328;86.106;2023-03-01T11:15:42;99494.94;;;0.22;79.59
78800;BME280;68148;55.328;86.106;2023-03-01T11:18:36;99499.41;;;0.20;78.82
78800;BME280;68148;55.328;86.106;2023-03-01T11:21:03;99495.63;;;0.24;79.37
78800;BME280;68148;55.328;86.106;2023-03-01T11:23:31;99509.31;;;0.27;78.61
78800;BME280;68148;55.328;86.106;2023-03-01T11:26:05;99507.28;;;0.30;78.53
78800;BME280;68148;55.328;86.106;2023-03-01T11:28:34;99502.34;;;0.27;78.39
78800;BME280;68148;55.328;86.106;2023-03-01T11:31:08;99500.44;;;0.29;77.52
78800;BME280;68148;55.328;86.106;2023-03-01T11:36:35;99502.53;;;0.35;76.96
78800;BME280;68148;55.328;86.106;2023-03-01T11:42:29;99507.00;;;0.33;76.39
78800;BME280;68148;55.328;86.106;2023-03-01T11:45:07;99511.16;;;0.36;75.06
78800;BME280;68148;55.328;86.106;2023-03-01T11:50:47;99520.44;;;0.38;72.76
78800;BME280;68148;55.328;86.106;2023-03-01T11:53:29;99505.72;;;0.39;74.50
78800;BME280;68148;55.328;86.106;2023-03-01T11:57:03;99506.63;;;0.38;74.85
78800;BME280;68148;55.328;86.106;2023-03-01T12:02:00;99494.47;;;0.38;73.77
78800;BME280;68148;55.328;86.106;2023-03-01T12:04:58;99494.63;;;0.37;73.01
78800;BME280;68148;55.328;86.106;2023-03-01T12:10:29;99493.78;;;0.36;73.88
78800;BME280;68148;55.328;86.106;2023-03-01T12:19:11;99486.88;;;0.25;75.79
78800;BME280;68148;55.328;86.106;2023-03-01T12:33:29;99493.84;;;0.25;77.98
78800;BME280;68148;55.328;86.106;2023-03-01T12:36:14;99496.56;;;0.23;78.22
78800;BME280;68148;55.328;86.106;2023-03-01T12:38:56;99494.94;;;0.22;78.89
78800;BME280;68148;55.328;86.106;2023-03-01T12:49:15;99498.03;;;0.37;77.19
78800;BME280;68148;55.328;86.106;2023-03-01T12:51:51;99501.19;;;0.41;75.59
78800;BME280;68148;55.328;86.106;2023-03-01T12:54:28;99491.25;;;0.46;75.59
78800;BME280;68148;55.328;86.106;2023-03-01T13:02:47;99500.66;;;0.68;75.04
78800;BME280;68148;55.328;86.106;2023-03-01T13:05:26;99506.41;;;0.71;74.28
78800;BME280;68148;55.328;86.106;2023-03-01T13:08:05;99494.25;;;0.72;74.20
78800;BME280;68148;55.328;86.106;2023-03-01T13:10:51;99499.88;;;0.77;73.47
78800;BME280;68148;55.328;86.106;2023-03-01T13:13:22;99496.34;;;0.78;73.91
78800;BME280;68148;55.328;86.106;2023-03-01T13:15:51;99501.41;;;0.80;74.63
78800;BME280;68148;55.328;86.106;2023-03-01T13:26:00;99501.59;;;0.88;73.06
78800;BME280;68148;55.328;86.106;2023-03-01T13:31:06;99495.03;;;0.93;73.85
78800;BME280;68148;55.328;86.106;2023-03-01T13:35:59;99498.44;;;0.94;72.52
78800;BME280;68148;55.328;86.106;2023-03-01T13:38:48;99496.97;;;0.91;72.63
78800;BME280;68148;55.328;86.106;2023-03-01T13:55:03;99489.84;;;0.93;72.88
78800;BME280;68148;55.328;86.106;2023-03-01T13:57:34;99487.13;;;0.95;73.48
78800;BME280;68148;55.328;86.106;2023-03-01T14:00:06;99483.31;;;0.99;71.27
78800;BME280;68148;55.328;86.106;2023-03-01T14:02:33;99482.63;;;0.97;72.94
78800;BME280;68148;55.328;86.106;2023-03-01T14:05:00;99479.75;;;1.00;72.23
78800;BME280;68148;55.328;86.106;2023-03-01T14:07:27;99474.41;;;1.02;72.01
78800;BME280;68148;55.328;86.106;2023-03-01T14:09:59;99474.84;;;1.07;71.18
78800;BME280;68148;55.328;86.106;2023-03-01T14:13:01;99473.09;;;1.07;69.23
78800;BME280;68148;55.328;86.106;2023-03-01T14:15:43;99479.78;;;1.10;69.32
78800;BME280;68148;55.328;86.106;2023-03-01T14:18:23;99472.13;;;1.08;69.16
78800;BME280;68148;55.328;86.106;2023-03-01T14:20:51;99476.22;;;1.11;69.91
78800;BME280;68148;55.328;86.106;2023-03-01T14:23:22;99473.50;;;1.12;68.82
78800;BME280;68148;55.328;86.106;2023-03-01T14:25:54;99481.72;;;1.17;68.54
78800;BME280;68148;55.328;86.106;2023-03-01T14:28:32;99479.00;;;1.19;68.96
78800;BME280;68148;55.328;86.106;2023-03-01T14:31:00;99481.47;;;1.20;69.39
78800;BME280;68148;55.328;86.106;2023-03-01T14:33:29;99479.38;;;1.14;69.32
78800;BME280;68148;55.328;86.106;2023-03-01T14:36:01;99482.81;;;1.15;69.20
78800;BME280;68148;55.328;86.106;2023-03-01T14:38:33;99472.41;;;1.15;68.13
78800;BME280;68148;55.328;86.106;2023-03-01T14:41:07;99471.59;;;1.14;66.17
78800;BME280;68148;55.328;86.106;2023-03-01T14:43:35;99467.63;;;1.10;67.43
78800;BME280;68148;55.328;86.106;2023-03-01T14:46:03;99467.34;;;1.13;66.95
78800;BME280;68148;55.328;86.106;2023-03-01T14:48:30;99464.63;;;1.15;65.55
78800;BME280;68148;55.328;86.106;2023-03-01T14:50:57;99457.91;;;1.12;63.72